createdAt,value
2022-10-07T00:00:56.488Z,4.50
2022-10-07T00:03:25.983Z,4.53
2022-10-07T00:06:03.404Z,4.57
2022-10-07T00:08:31.251Z,4.57
2022-10-07T00:10:58.923Z,4.30
2022-10-07T00:13:26.419Z,4.35
2022-10-07T00:15:53.842Z,3.95
2022-10-07T00:18:21.432Z,4.32
2022-10-07T00:20:48.869Z,4.47
2022-10-07T00:23:16.316Z,4.93
2022-10-07T00:25:43.720Z,4.40
2022-10-07T00:28:11.581Z,4.60
2022-10-07T00:30:39.104Z,4.30
2022-10-07T00:33:06.610Z,4.05
2022-10-07T00:35:35.840Z,4.80
2022-10-07T00:38:03.136Z,4.68
2022-10-07T00:40:30.338Z,4.60
2022-10-07T00:42:57.528Z,4.68
2022-10-07T00:45:24.795Z,4.15
2022-10-07T00:47:52.111Z,4.38
2022-10-07T00:50:25.557Z,4.50
2022-10-07T00:52:54.463Z,4.83
2022-10-07T00:55:23.734Z,5.07
2022-10-07T00:57:51.742Z,4.90
2022-10-07T01:00:21.841Z,5.53
2022-10-07T01:02:49.207Z,5.10
2022-10-07T01:05:17.803Z,5.05
2022-10-07T01:07:47.597Z,4.78
2022-10-07T01:10:18.815Z,5.43
2022-10-07T01:12:52.184Z,5.88
2022-10-07T01:15:28.588Z,4.72
2022-10-07T01:18:05.121Z,4.70
2022-10-07T01:20:35.604Z,5.10
2022-10-07T01:23:21.359Z,4.93
2022-10-07T01:26:04.331Z,5.63
2022-10-07T01:28:44.330Z,5.60
2022-10-07T01:31:14.130Z,6.20
2022-10-07T01:33:42.435Z,5.18
2022-10-07T01:36:11.568Z,5.70
2022-10-07T01:38:41.882Z,5.15
2022-10-07T01:41:12.011Z,5.43
2022-10-07T01:43:40.118Z,4.80
2022-10-07T01:46:09.924Z,5.15
2022-10-07T01:48:37.302Z,4.65
2022-10-07T01:51:06.603Z,4.82
2022-10-07T01:53:45.804Z,4.57
2022-10-07T01:56:21.891Z,4.10
2022-10-07T01:59:07.783Z,4.35
2022-10-07T02:01:53.897Z,3.95
2022-10-07T02:04:31.228Z,4.65
2022-10-07T02:07:01.303Z,4.07
2022-10-07T02:09:34.951Z,4.28
2022-10-07T02:12:08.440Z,4.05
2022-10-07T02:14:41.386Z,4.15
2022-10-07T02:17:14.228Z,3.67
2022-10-07T02:19:45.111Z,4.00
2022-10-07T02:22:14.182Z,4.13
2022-10-07T02:24:42.136Z,4.00
2022-10-07T02:27:14.390Z,3.85
2022-10-07T02:29:43.359Z,4.00
2022-10-07T02:32:12.475Z,3.80
2022-10-07T02:34:41.294Z,4.47
2022-10-07T02:37:14.318Z,3.85
2022-10-07T02:39:43.674Z,3.58
2022-10-07T02:42:14.826Z,4.45
2022-10-07T02:44:48.303Z,4.15
2022-10-07T02:47:29.097Z,4.13
2022-10-07T02:50:00.392Z,3.65
2022-10-07T02:52:31.297Z,3.65
2022-10-07T02:55:00.981Z,3.75
2022-10-07T02:57:31.403Z,3.58
2022-10-07T03:00:01.051Z,3.67
2022-10-07T03:02:31.151Z,4.07
2022-10-07T03:04:58.979Z,3.78
2022-10-07T03:07:26.511Z,3.28
2022-10-07T03:09:54.014Z,3.00
2022-10-07T03:12:21.216Z,3.45
2022-10-07T03:14:50.048Z,3.15
2022-10-07T03:17:20.047Z,3.17
2022-10-07T03:19:47.288Z,3.17
2022-10-07T03:22:14.478Z,2.85
2022-10-07T03:24:42.686Z,3.25
2022-10-07T03:27:10.118Z,3.20
2022-10-07T03:29:37.387Z,3.60
2022-10-07T03:32:04.872Z,3.33
2022-10-07T03:34:32.254Z,3.50
2022-10-07T03:37:00.138Z,3.55
2022-10-07T03:39:28.179Z,3.03
2022-10-07T03:41:57.106Z,3.10
2022-10-07T03:44:24.436Z,2.60
2022-10-07T03:46:52.613Z,3.17
2022-10-07T03:49:20.341Z,3.40
2022-10-07T03:51:47.718Z,2.85
2022-10-07T03:54:15.087Z,2.88
2022-10-07T03:56:42.273Z,3.40
2022-10-07T03:59:09.663Z,3.00
2022-10-07T04:01:37.369Z,3.00
2022-10-07T04:04:04.633Z,3.00
2022-10-07T04:06:32.163Z,2.85
2022-10-07T04:08:59.391Z,2.90
2022-10-07T04:11:26.717Z,2.90
2022-10-07T04:13:53.924Z,3.10
2022-10-07T04:16:22.098Z,3.10
2022-10-07T04:18:49.495Z,2.80
2022-10-07T04:21:17.020Z,2.75
2022-10-07T04:23:44.310Z,2.63
2022-10-07T04:26:12.617Z,3.05
2022-10-07T04:28:40.186Z,3.20
2022-10-07T04:31:08.992Z,3.60
2022-10-07T04:33:39.591Z,3.15
2022-10-07T04:36:07.730Z,5.18
2022-10-07T04:38:34.925Z,4.40
2022-10-07T04:41:06.893Z,4.30
2022-10-07T04:43:34.867Z,4.28
2022-10-07T04:46:07.152Z,3.97
2022-10-07T04:48:34.663Z,4.97
2022-10-07T04:51:02.817Z,4.30
2022-10-07T04:53:31.566Z,4.20
2022-10-07T04:56:00.083Z,4.13
2022-10-07T04:58:28.323Z,3.90
2022-10-07T05:00:56.319Z,3.80
2022-10-07T05:03:24.993Z,4.10
2022-10-07T05:05:53.339Z,4.15
2022-10-07T05:08:21.559Z,3.28
2022-10-07T05:10:49.073Z,3.38
2022-10-07T05:13:17.074Z,3.60
2022-10-07T05:15:50.819Z,3.30
2022-10-07T05:18:19.275Z,3.78
2022-10-07T05:20:47.717Z,3.80
2022-10-07T05:23:16.358Z,4.28
2022-10-07T05:25:44.549Z,5.40
2022-10-07T05:28:12.226Z,4.47
2022-10-07T05:30:39.514Z,4.38
2022-10-07T05:33:06.900Z,3.88
2022-10-07T05:35:34.248Z,4.32
2022-10-07T05:38:02.213Z,4.78
2022-10-07T05:40:29.782Z,5.03
2022-10-07T05:42:57.119Z,5.25
2022-10-07T05:45:24.311Z,4.90
2022-10-07T05:47:51.916Z,5.13
2022-10-07T05:50:19.189Z,5.35
2022-10-07T05:52:46.479Z,4.13
2022-10-07T05:55:13.665Z,5.07
2022-10-07T05:57:41.439Z,4.03
2022-10-07T06:00:09.009Z,4.43
2022-10-07T06:02:37.368Z,3.90
2022-10-07T06:05:04.753Z,4.20
2022-10-07T06:07:32.048Z,3.83
2022-10-07T06:10:17.777Z,3.55
2022-10-07T06:13:03.906Z,3.90
2022-10-07T06:15:31.719Z,3.88
2022-10-07T06:17:58.991Z,4.35
2022-10-07T06:20:26.658Z,4.32
2022-10-07T06:22:55.471Z,3.88
2022-10-07T06:25:23.474Z,4.53
2022-10-07T06:27:54.215Z,4.65
2022-10-07T06:30:21.962Z,5.30
2022-10-07T06:32:49.258Z,5.07
2022-10-07T06:35:16.554Z,4.28
2022-10-07T06:37:43.912Z,3.85
2022-10-07T06:40:12.035Z,4.10
2022-10-07T06:42:39.227Z,4.13
2022-10-07T06:45:06.779Z,4.10
2022-10-07T06:47:34.674Z,3.60
2022-10-07T06:50:02.130Z,4.40
2022-10-07T06:52:29.352Z,4.50
2022-10-07T06:54:57.915Z,4.15
2022-10-07T06:57:44.912Z,4.07
2022-10-07T07:00:12.585Z,3.88
2022-10-07T07:02:39.814Z,3.80
2022-10-07T07:05:08.772Z,4.45
2022-10-07T07:07:36.022Z,4.20
2022-10-07T07:10:03.796Z,3.95
2022-10-07T07:12:31.052Z,3.88
2022-10-07T07:15:00.362Z,4.85
2022-10-07T07:17:27.577Z,4.97
2022-10-07T07:19:55.604Z,4.93
2022-10-07T07:22:22.838Z,4.63
2022-10-07T07:24:50.077Z,5.25
2022-10-07T07:27:17.369Z,5.13
2022-10-07T07:29:44.578Z,5.97
2022-10-07T07:32:11.868Z,5.70
2022-10-07T07:34:39.132Z,4.60
2022-10-07T07:37:07.184Z,4.20
2022-10-07T07:39:34.387Z,4.82
2022-10-07T07:42:01.631Z,4.35
2022-10-07T07:44:34.000Z,4.43
2022-10-07T07:47:02.257Z,4.20
2022-10-07T07:49:32.033Z,4.45
2022-10-07T07:51:59.479Z,4.30
2022-10-07T07:54:30.567Z,4.10
2022-10-07T07:56:58.641Z,4.57
2022-10-07T07:59:26.534Z,4.10
2022-10-07T08:01:53.791Z,4.00
2022-10-07T08:04:21.150Z,4.18
2022-10-07T08:06:48.387Z,4.28
2022-10-07T08:09:15.681Z,4.40
2022-10-07T08:11:45.360Z,4.32
2022-10-07T08:14:13.669Z,3.95
2022-10-07T08:16:40.927Z,3.95
2022-10-07T08:19:08.193Z,4.72
2022-10-07T08:21:35.502Z,4.53
2022-10-07T08:24:04.037Z,5.43
2022-10-07T08:26:32.865Z,6.65
2022-10-07T08:29:01.560Z,5.80
2022-10-07T08:31:29.583Z,5.82
2022-10-07T08:33:58.496Z,5.78
2022-10-07T08:36:26.662Z,5.30
2022-10-07T08:38:54.205Z,5.80
2022-10-07T08:41:40.274Z,5.90
2022-10-07T08:44:24.357Z,5.45
2022-10-07T08:47:06.506Z,5.63
2022-10-07T08:49:36.690Z,6.07
2022-10-07T08:52:06.494Z,5.80
2022-10-07T08:54:34.231Z,6.38
2022-10-07T08:57:24.603Z,6.00
2022-10-07T08:59:55.024Z,6.15
2022-10-07T09:02:22.309Z,6.85
2022-10-07T09:04:55.757Z,6.38
2022-10-07T09:07:22.985Z,6.37
2022-10-07T09:09:53.757Z,6.97
2022-10-07T09:12:41.291Z,6.80
2022-10-07T09:15:16.281Z,6.32
2022-10-07T09:17:50.512Z,6.95
2022-10-07T09:20:20.448Z,6.47
2022-10-07T09:22:55.081Z,6.40
2022-10-07T09:25:23.709Z,7.00
2022-10-07T09:27:52.293Z,6.88
2022-10-07T09:30:20.423Z,6.68
2022-10-07T09:32:49.585Z,6.82
2022-10-07T09:35:20.198Z,6.18
2022-10-07T09:37:56.367Z,7.80
2022-10-07T09:40:31.473Z,6.60
2022-10-07T09:42:59.861Z,6.43
2022-10-07T09:45:27.189Z,7.00
2022-10-07T09:47:56.365Z,7.25
2022-10-07T09:50:39.753Z,6.75
2022-10-07T09:53:17.373Z,7.82
2022-10-07T09:55:44.683Z,7.88
2022-10-07T09:58:18.027Z,7.22
2022-10-07T10:00:49.354Z,8.30
2022-10-07T10:03:18.179Z,7.57
2022-10-07T10:05:54.862Z,7.45
2022-10-07T10:08:23.985Z,8.15
2022-10-07T10:10:53.333Z,8.00
2022-10-07T10:13:29.809Z,7.72
2022-10-07T10:15:57.165Z,9.55
2022-10-07T10:18:29.675Z,8.55
2022-10-07T10:20:56.949Z,7.88
2022-10-07T10:23:30.444Z,8.80
2022-10-07T10:26:33.312Z,9.33
2022-10-07T10:29:24.342Z,8.60
2022-10-07T10:32:10.206Z,9.10
2022-10-07T10:34:52.706Z,9.52
2022-10-07T10:37:21.798Z,9.20
2022-10-07T10:40:07.973Z,10.30
2022-10-07T10:42:48.119Z,9.18
2022-10-07T10:45:20.524Z,10.68
2022-10-07T10:48:07.152Z,12.23
2022-10-07T10:50:49.112Z,11.93
2022-10-07T10:53:34.510Z,13.25
2022-10-07T10:56:10.938Z,14.85
2022-10-07T10:58:38.170Z,14.07
2022-10-07T11:01:21.110Z,12.70
2022-10-07T11:03:59.795Z,14.98
2022-10-07T11:06:28.625Z,14.90
2022-10-07T11:08:57.508Z,15.98
2022-10-07T11:11:24.828Z,15.38
2022-10-07T11:13:57.904Z,16.85
2022-10-07T11:16:40.696Z,16.35
2022-10-07T11:19:12.167Z,14.38
2022-10-07T11:21:50.520Z,15.52
2022-10-07T11:24:35.658Z,15.85
2022-10-07T11:27:17.399Z,14.68
2022-10-07T11:29:48.445Z,16.67
2022-10-07T11:32:21.284Z,16.35
2022-10-07T11:34:54.788Z,15.45
2022-10-07T11:37:22.114Z,15.02
2022-10-07T11:39:49.965Z,12.68
2022-10-07T11:42:20.567Z,15.07
2022-10-07T11:44:54.528Z,15.88
2022-10-07T11:47:24.454Z,12.93
2022-10-07T11:49:57.912Z,15.60
2022-10-07T11:52:28.123Z,16.90
2022-10-07T11:55:00.687Z,14.10
2022-10-07T11:57:31.433Z,12.68
2022-10-07T12:00:00.573Z,13.23
2022-10-07T12:02:30.632Z,11.38
2022-10-07T12:05:01.808Z,11.18
2022-10-07T12:07:35.194Z,12.25
2022-10-07T12:10:02.462Z,10.87
2022-10-07T12:12:46.373Z,10.50
2022-10-07T12:15:32.751Z,11.93
2022-10-07T12:18:06.296Z,10.98
2022-10-07T12:20:43.002Z,10.30
2022-10-07T12:23:22.463Z,11.52
2022-10-07T12:25:59.856Z,10.10
2022-10-07T12:28:27.115Z,11.25
2022-10-07T12:30:56.195Z,11.00
2022-10-07T12:33:30.236Z,10.32
2022-10-07T12:35:57.561Z,11.13
2022-10-07T12:38:28.920Z,11.13
2022-10-07T12:41:02.383Z,11.27
2022-10-07T12:43:38.819Z,10.77
2022-10-07T12:46:07.106Z,11.05
2022-10-07T12:48:37.937Z,12.07
2022-10-07T12:51:06.628Z,10.55
2022-10-07T12:53:37.432Z,11.40
2022-10-07T12:56:06.495Z,9.75
2022-10-07T12:58:52.184Z,12.75
2022-10-07T13:01:42.841Z,9.75
2022-10-07T13:04:22.751Z,9.07
2022-10-07T13:06:50.018Z,11.15
2022-10-07T13:09:17.258Z,9.93
2022-10-07T13:11:52.328Z,10.70
2022-10-07T13:14:31.027Z,10.25
2022-10-07T13:17:08.157Z,9.60
2022-10-07T13:19:41.217Z,9.80
2022-10-07T13:22:08.728Z,9.82
2022-10-07T13:24:39.356Z,9.35
2022-10-07T13:27:10.397Z,9.10
2022-10-07T13:29:38.505Z,9.02
2022-10-07T13:32:11.971Z,9.13
2022-10-07T13:34:39.280Z,9.17
2022-10-07T13:37:25.299Z,9.10
2022-10-07T13:39:52.659Z,9.65
2022-10-07T13:42:21.422Z,8.85
2022-10-07T13:44:48.880Z,8.88
2022-10-07T13:47:20.953Z,8.90
2022-10-07T13:49:50.482Z,9.32
2022-10-07T13:52:32.142Z,9.25
2022-10-07T13:54:59.385Z,7.55
2022-10-07T13:57:29.254Z,8.48
2022-10-07T13:59:56.833Z,7.60
2022-10-07T14:02:24.132Z,7.95
2022-10-07T14:04:54.405Z,8.20
2022-10-07T14:07:22.601Z,7.80
2022-10-07T14:10:09.789Z,8.75
2022-10-07T14:12:46.382Z,7.35
2022-10-07T14:15:20.218Z,8.80
2022-10-07T14:17:49.184Z,7.88
2022-10-07T14:20:16.378Z,8.32
2022-10-07T14:22:45.287Z,7.07
2022-10-07T14:25:29.678Z,7.90
2022-10-07T14:28:16.411Z,6.68
2022-10-07T14:31:03.302Z,8.32
2022-10-07T14:33:49.441Z,7.47
2022-10-07T14:36:18.419Z,7.95
2022-10-07T14:38:47.013Z,7.38
2022-10-07T14:41:15.017Z,7.20
2022-10-07T14:43:44.863Z,6.70
2022-10-07T14:46:17.197Z,8.00
2022-10-07T14:48:44.623Z,7.90
2022-10-07T14:51:12.282Z,7.93
2022-10-07T14:53:40.968Z,8.38
2022-10-07T14:56:10.857Z,8.63
2022-10-07T14:58:38.086Z,8.52
2022-10-07T15:01:07.843Z,9.52
2022-10-07T15:03:35.595Z,7.97
2022-10-07T15:06:02.922Z,9.23
2022-10-07T15:08:31.400Z,9.00
2022-10-07T15:10:59.032Z,8.27
2022-10-07T15:13:28.278Z,9.68
2022-10-07T15:15:55.686Z,8.13
2022-10-07T15:18:22.906Z,8.52
2022-10-07T15:20:56.387Z,8.98
2022-10-07T15:23:24.030Z,7.33
2022-10-07T15:25:52.938Z,8.18
2022-10-07T15:28:20.272Z,8.10
2022-10-07T15:30:47.645Z,7.82
2022-10-07T15:33:14.965Z,7.28
2022-10-07T15:35:42.280Z,8.48
2022-10-07T15:38:09.531Z,7.53
2022-10-07T15:40:51.511Z,6.90
2022-10-07T15:43:18.752Z,7.28
2022-10-07T15:45:46.176Z,7.25
2022-10-07T15:48:13.476Z,7.00
2022-10-07T15:50:46.086Z,7.65
2022-10-07T15:53:14.647Z,7.75
2022-10-07T15:55:49.418Z,7.15
2022-10-07T15:58:16.754Z,7.15
2022-10-07T16:00:44.198Z,7.28
2022-10-07T16:03:11.543Z,7.03
2022-10-07T16:05:38.758Z,6.50
2022-10-07T16:08:05.988Z,6.75
2022-10-07T16:10:37.113Z,7.15
2022-10-07T16:13:04.376Z,6.20
2022-10-07T16:15:31.704Z,7.47
2022-10-07T16:17:58.959Z,6.47
2022-10-07T16:20:26.243Z,6.68
2022-10-07T16:22:53.489Z,6.85
2022-10-07T16:25:20.698Z,6.63
2022-10-07T16:28:06.662Z,6.90
2022-10-07T16:30:43.115Z,8.45
2022-10-07T16:33:10.384Z,7.32
2022-10-07T16:35:37.633Z,8.70
2022-10-07T16:38:05.506Z,7.53
2022-10-07T16:40:32.749Z,7.55
2022-10-07T16:43:00.162Z,7.97
2022-10-07T16:45:27.798Z,7.53
2022-10-07T16:47:58.728Z,8.65
2022-10-07T16:50:25.941Z,7.95
2022-10-07T16:52:53.193Z,9.18
2022-10-07T16:55:20.402Z,8.65
2022-10-07T16:57:48.682Z,7.72
2022-10-07T17:00:16.307Z,8.68
2022-10-07T17:02:43.543Z,8.23
2022-10-07T17:05:11.194Z,9.65
2022-10-07T17:07:38.467Z,10.82
2022-10-07T17:10:05.945Z,9.43
2022-10-07T17:12:33.210Z,8.75
2022-10-07T17:15:02.120Z,9.18
2022-10-07T17:17:30.366Z,10.40
2022-10-07T17:19:57.575Z,9.93
2022-10-07T17:22:24.815Z,10.05
2022-10-07T17:24:52.524Z,10.15
2022-10-07T17:27:19.899Z,9.82
2022-10-07T17:29:47.262Z,9.75
2022-10-07T17:32:14.675Z,9.80
2022-10-07T17:34:45.315Z,10.70
2022-10-07T17:37:12.863Z,10.30
2022-10-07T17:39:40.079Z,11.80
2022-10-07T17:42:07.328Z,11.07
2022-10-07T17:44:34.716Z,12.52
2022-10-07T17:47:04.399Z,11.93
2022-10-07T17:49:31.707Z,11.40
2022-10-07T17:51:59.069Z,12.48
2022-10-07T17:54:27.027Z,13.05
2022-10-07T17:56:54.262Z,13.85
2022-10-07T17:59:21.485Z,13.02
2022-10-07T18:01:48.742Z,14.18
2022-10-07T18:04:22.438Z,14.23
2022-10-07T18:06:51.152Z,14.35
2022-10-07T18:09:19.451Z,13.98
2022-10-07T18:12:05.567Z,14.50
2022-10-07T18:14:54.003Z,13.98
2022-10-07T18:17:22.139Z,14.07
2022-10-07T18:19:49.364Z,13.32
2022-10-07T18:22:16.655Z,13.98
2022-10-07T18:24:44.012Z,16.65
2022-10-07T18:27:11.197Z,15.10
2022-10-07T18:29:38.447Z,16.20
2022-10-07T18:32:09.191Z,16.80
2022-10-07T18:34:36.601Z,18.17
2022-10-07T18:37:03.855Z,17.50
2022-10-07T18:39:31.098Z,17.88
2022-10-07T18:41:58.938Z,16.23
2022-10-07T18:44:26.755Z,16.38
2022-10-07T18:46:54.258Z,15.68
2022-10-07T18:49:21.495Z,16.80
2022-10-07T18:51:51.007Z,17.23
2022-10-07T18:54:19.090Z,16.63
2022-10-07T18:56:49.959Z,15.65
2022-10-07T18:59:18.100Z,15.73
2022-10-07T19:01:50.074Z,15.20
2022-10-07T19:04:18.065Z,16.35
2022-10-07T19:06:46.091Z,15.73
2022-10-07T19:09:20.589Z,16.77
2022-10-07T19:11:48.252Z,17.25
2022-10-07T19:14:15.598Z,16.88
2022-10-07T19:16:44.331Z,16.83
2022-10-07T19:19:17.217Z,16.27
2022-10-07T19:21:46.290Z,17.40
2022-10-07T19:24:13.919Z,18.13
2022-10-07T19:26:42.816Z,16.95
2022-10-07T19:29:10.917Z,16.80
2022-10-07T19:31:42.722Z,16.38
2022-10-07T19:34:11.612Z,16.73
2022-10-07T19:36:42.350Z,17.58
2022-10-07T19:39:10.731Z,18.48
2022-10-07T19:41:38.517Z,19.63
2022-10-07T19:44:06.041Z,19.92
2022-10-07T19:46:33.818Z,20.80
2022-10-07T19:49:01.736Z,19.52
2022-10-07T19:51:30.338Z,19.75
2022-10-07T19:53:58.168Z,20.85
2022-10-07T19:56:28.446Z,19.48
2022-10-07T19:58:56.918Z,19.75
2022-10-07T20:01:25.542Z,19.13
2022-10-07T20:03:57.254Z,19.20
2022-10-07T20:06:25.389Z,18.35
2022-10-07T20:08:53.119Z,18.60
2022-10-07T20:11:20.332Z,18.80
2022-10-07T20:13:47.656Z,18.48
2022-10-07T20:16:16.889Z,18.02
2022-10-07T20:18:44.190Z,19.48
2022-10-07T20:21:15.905Z,18.98
2022-10-07T20:23:44.709Z,20.88
2022-10-07T20:26:16.300Z,20.10
2022-10-07T20:28:43.565Z,19.17
2022-10-07T20:31:12.036Z,19.85
2022-10-07T20:33:46.822Z,19.98
2022-10-07T20:36:15.368Z,18.90
2022-10-07T20:39:09.248Z,18.25
2022-10-07T20:42:06.035Z,19.15
2022-10-07T20:44:33.295Z,18.75
2022-10-07T20:47:00.718Z,18.80
2022-10-07T20:49:30.065Z,18.73
2022-10-07T20:52:02.210Z,18.42
2022-10-07T20:54:29.977Z,18.50
2022-10-07T20:56:57.949Z,18.65
2022-10-07T20:59:26.049Z,18.50
2022-10-07T21:01:53.919Z,17.90
2022-10-07T21:04:21.399Z,18.92
2022-10-07T21:06:52.395Z,18.17
2022-10-07T21:09:20.103Z,19.30
2022-10-07T21:11:48.373Z,19.75
2022-10-07T21:14:17.453Z,20.83
2022-10-07T21:16:45.090Z,19.83
2022-10-07T21:19:12.355Z,18.75
2022-10-07T21:21:40.057Z,20.40
2022-10-07T21:24:07.556Z,19.00
2022-10-07T21:26:35.578Z,18.30
2022-10-07T21:29:04.190Z,18.70
2022-10-07T21:31:31.561Z,18.08
2022-10-07T21:34:01.665Z,17.88
2022-10-07T21:36:28.958Z,17.30
2022-10-07T21:38:58.287Z,17.50
2022-10-07T21:41:26.726Z,17.77
2022-10-07T21:43:55.216Z,17.52
2022-10-07T21:46:23.514Z,18.20
2022-10-07T21:48:52.139Z,17.35
2022-10-07T21:51:19.366Z,18.85
2022-10-07T21:53:50.932Z,18.13
2022-10-07T21:56:18.320Z,17.80
2022-10-07T21:58:47.026Z,20.00
2022-10-07T22:01:16.191Z,19.27
2022-10-07T22:03:44.177Z,17.67
2022-10-07T22:06:12.907Z,18.92
2022-10-07T22:08:40.698Z,18.70
2022-10-07T22:11:09.460Z,17.60
2022-10-07T22:13:38.070Z,18.00
2022-10-07T22:16:08.446Z,17.17
2022-10-07T22:18:36.644Z,16.70
2022-10-07T22:21:14.330Z,18.02
2022-10-07T22:23:42.089Z,16.52
2022-10-07T22:26:12.480Z,15.77
2022-10-07T22:28:40.702Z,16.45
2022-10-07T22:31:09.166Z,17.25
2022-10-07T22:33:37.477Z,16.13
2022-10-07T22:36:05.606Z,17.15
2022-10-07T22:38:33.005Z,16.95
2022-10-07T22:41:07.886Z,19.05
2022-10-07T22:43:38.774Z,18.55
2022-10-07T22:46:06.399Z,17.70
2022-10-07T22:48:34.286Z,18.38
2022-10-07T22:51:06.443Z,17.77
2022-10-07T22:53:34.991Z,17.35
2022-10-07T22:56:06.405Z,16.77
2022-10-07T22:58:35.594Z,16.95
2022-10-07T23:01:10.347Z,16.13
2022-10-07T23:03:39.676Z,15.60
2022-10-07T23:06:07.700Z,16.42
2022-10-07T23:08:35.365Z,15.75
2022-10-07T23:11:03.530Z,17.30
2022-10-07T23:13:32.898Z,16.55
2022-10-07T23:16:01.295Z,17.23
2022-10-07T23:18:29.178Z,15.35
2022-10-07T23:21:00.193Z,17.08
2022-10-07T23:23:27.958Z,16.00
2022-10-07T23:25:55.305Z,17.38
2022-10-07T23:28:23.794Z,17.85
2022-10-07T23:30:51.123Z,16.02
2022-10-07T23:33:18.388Z,15.90
2022-10-07T23:35:45.634Z,16.33
2022-10-07T23:38:12.860Z,17.02
2022-10-07T23:40:40.887Z,17.27
2022-10-07T23:43:11.241Z,16.27
2022-10-07T23:45:38.556Z,16.95
2022-10-07T23:48:05.785Z,17.08
2022-10-07T23:50:34.329Z,17.30
2022-10-07T23:53:01.557Z,16.70
2022-10-07T23:55:28.873Z,20.05
2022-10-07T23:57:56.116Z,22.33
